createdAt,value
2022-08-05T00:00:16.783Z,101371.84
2022-08-05T00:02:50.845Z,101374.91
2022-08-05T00:06:01.858Z,101374.38
2022-08-05T00:08:34.327Z,101374.69
2022-08-05T00:11:00.611Z,101370.91
2022-08-05T00:13:38.998Z,101378.03
2022-08-05T00:16:09.556Z,101370.09
2022-08-05T00:18:42.179Z,101380.25
2022-08-05T00:21:11.694Z,101385.25
2022-08-05T00:23:46.950Z,101375.38
2022-08-05T00:26:22.314Z,101374.56
2022-08-05T00:28:51.607Z,101383.91
2022-08-05T00:31:41.339Z,101371.66
2022-08-05T00:34:53.755Z,101382.06
2022-08-05T00:37:11.668Z,101387.03
2022-08-05T00:39:57.218Z,101386.81
2022-08-05T00:42:33.879Z,101386.50
2022-08-05T00:45:01.679Z,101381.63
2022-08-05T00:47:53.434Z,101381.09
2022-08-05T00:50:17.536Z,101371.81
2022-08-05T00:52:46.834Z,101365.81
2022-08-05T00:55:14.956Z,101362.03
2022-08-05T00:57:57.879Z,101347.06
2022-08-05T01:00:27.694Z,101375.84
2022-08-05T01:02:56.025Z,101380.50
2022-08-05T01:05:23.954Z,101377.25
2022-08-05T01:08:40.390Z,101384.66
2022-08-05T01:10:52.447Z,101400.09
2022-08-05T01:13:27.590Z,101418.78
2022-08-05T01:16:26.517Z,101427.03
2022-08-05T01:19:01.801Z,101440.50
2022-08-05T01:21:52.264Z,101447.41
2022-08-05T01:24:42.703Z,101455.13
2022-08-05T01:27:26.541Z,101457.59
2022-08-05T01:29:59.285Z,101460.13
2022-08-05T01:32:29.207Z,101463.69
2022-08-05T01:35:00.519Z,101461.53
2022-08-05T01:37:38.250Z,101447.81
2022-08-05T01:40:13.950Z,101460.19
2022-08-05T01:42:47.562Z,101465.66
2022-08-05T01:45:17.782Z,101470.91
2022-08-05T01:47:50.389Z,101481.59
2022-08-05T01:50:28.574Z,101467.88
2022-08-05T01:53:01.195Z,101447.03
2022-08-05T01:55:32.130Z,101416.06
2022-08-05T01:58:10.982Z,101389.72
2022-08-05T02:00:48.267Z,101400.19
2022-08-05T02:03:24.193Z,101402.91
2022-08-05T02:05:57.846Z,101380.81
2022-08-05T02:08:31.273Z,101380.22
2022-08-05T02:11:07.727Z,101381.88
2022-08-05T02:13:53.242Z,101379.94
2022-08-05T02:16:27.576Z,101411.22
2022-08-05T02:18:59.772Z,101423.31
2022-08-05T02:21:43.005Z,101421.66
2022-08-05T02:24:19.698Z,101421.44
2022-08-05T02:26:55.377Z,101432.13
2022-08-05T02:30:00.027Z,101437.91
2022-08-05T02:34:59.018Z,101429.13
2022-08-05T02:37:32.291Z,101414.91
2022-08-05T02:40:00.643Z,101426.97
2022-08-05T02:42:34.305Z,101429.19
2022-08-05T02:45:04.933Z,101434.97
2022-08-05T02:47:58.375Z,101418.81
2022-08-05T02:50:25.698Z,101409.25
2022-08-05T02:52:54.420Z,101404.06
2022-08-05T02:55:52.051Z,101410.94
2022-08-05T02:58:15.630Z,101409.31
2022-08-05T03:00:46.063Z,101390.41
2022-08-05T03:03:17.646Z,101395.88
2022-08-05T03:06:56.335Z,101393.72
2022-08-05T03:08:34.697Z,101397.59
2022-08-05T03:11:56.900Z,101398.16
2022-08-05T03:14:03.129Z,101412.16
2022-08-05T03:16:32.123Z,101415.19
2022-08-05T03:19:06.501Z,101412.75
2022-08-05T03:21:49.544Z,101431.41
2022-08-05T03:24:29.429Z,101438.00
2022-08-05T03:26:59.024Z,101418.28
2022-08-05T03:29:44.501Z,101424.88
2022-08-05T03:32:15.371Z,101427.91
2022-08-05T03:34:50.763Z,101419.16
2022-08-05T03:37:20.073Z,101423.28
2022-08-05T03:39:58.638Z,101417.28
2022-08-05T03:42:28.870Z,101413.19
2022-08-05T03:44:57.058Z,101415.97
2022-08-05T03:47:25.101Z,101444.97
2022-08-05T03:49:59.799Z,101447.16
2022-08-05T03:52:49.231Z,101435.13
2022-08-05T03:56:05.718Z,101431.81
2022-08-05T03:58:18.833Z,101430.19
2022-08-05T04:00:51.584Z,101427.44
2022-08-05T04:03:28.217Z,101423.06
2022-08-05T04:05:59.834Z,101412.41
2022-08-05T04:08:35.997Z,101411.88
2022-08-05T04:11:07.382Z,101409.41
2022-08-05T04:13:51.256Z,101403.13
2022-08-05T04:16:25.346Z,101408.91
2022-08-05T04:19:00.490Z,101399.84
2022-08-05T04:22:09.508Z,101389.53
2022-08-05T04:24:19.456Z,101413.03
2022-08-05T04:26:50.833Z,101412.22
2022-08-05T04:29:18.880Z,101417.97
2022-08-05T04:31:48.534Z,101430.88
2022-08-05T04:34:32.625Z,101429.22
2022-08-05T04:37:04.019Z,101423.75
2022-08-05T04:39:33.525Z,101424.84
2022-08-05T04:42:03.779Z,101426.25
2022-08-05T04:44:31.535Z,101433.66
2022-08-05T04:46:59.470Z,101433.94
2022-08-05T04:49:39.118Z,101435.03
2022-08-05T04:52:16.967Z,101436.16
2022-08-05T04:54:46.382Z,101433.41
2022-08-05T04:57:14.120Z,101440.00
2022-08-05T04:59:41.863Z,101434.84
2022-08-05T05:02:37.567Z,101443.06
2022-08-05T05:05:03.044Z,101440.59
2022-08-05T05:07:35.385Z,101435.41
2022-08-05T05:10:05.348Z,101449.91
2022-08-05T05:12:34.228Z,101436.50
2022-08-05T05:15:05.964Z,101429.41
2022-08-05T05:17:56.605Z,101432.41
2022-08-05T05:20:28.662Z,101437.09
2022-08-05T05:22:58.186Z,101440.09
2022-08-05T05:25:32.594Z,101457.66
2022-08-05T05:28:00.897Z,101456.00
2022-08-05T05:30:29.770Z,101457.13
2022-08-05T05:33:15.934Z,101465.63
2022-08-05T05:35:46.768Z,101474.66
2022-08-05T05:38:22.507Z,101457.16
2022-08-05T05:40:55.836Z,101465.38
2022-08-05T05:43:56.449Z,101462.09
2022-08-05T05:46:17.492Z,101470.31
2022-08-05T05:48:48.553Z,101467.59
2022-08-05T05:51:21.649Z,101467.88
2022-08-05T05:53:58.024Z,101463.78
2022-08-05T05:56:31.582Z,101474.44
2022-08-05T05:59:03.072Z,101473.91
2022-08-05T06:01:36.998Z,101480.50
2022-08-05T06:04:07.098Z,101485.16
2022-08-05T06:06:35.422Z,101484.34
2022-08-05T06:09:05.745Z,101469.81
2022-08-05T06:11:35.551Z,101480.25
2022-08-05T06:14:07.376Z,101484.91
2022-08-05T06:16:37.365Z,101481.34
2022-08-05T06:19:07.362Z,101485.19
2022-08-05T06:21:38.759Z,101487.94
2022-08-05T06:24:12.835Z,101490.13
2022-08-05T06:26:51.613Z,101486.56
2022-08-05T06:29:25.285Z,101485.75
2022-08-05T06:32:25.254Z,101483.59
2022-08-05T06:34:56.878Z,101488.78
2022-08-05T06:37:55.873Z,101497.00
2022-08-05T06:40:18.144Z,101501.66
2022-08-05T06:42:51.879Z,101513.69
2022-08-05T06:45:20.761Z,101516.44
2022-08-05T06:48:37.107Z,101518.34
2022-08-05T06:50:37.365Z,101524.13
2022-08-05T06:53:19.593Z,101528.78
2022-08-05T06:55:54.278Z,101528.25
2022-08-05T06:58:34.866Z,101532.06
2022-08-05T07:01:06.976Z,101535.91
2022-08-05T07:03:35.506Z,101532.34
2022-08-05T07:06:05.486Z,101538.13
2022-08-05T07:08:38.168Z,101538.41
2022-08-05T07:11:15.211Z,101539.50
2022-08-05T07:14:01.087Z,101539.78
2022-08-05T07:17:57.054Z,101544.44
2022-08-05T07:22:29.048Z,101550.16
2022-08-05T07:24:59.176Z,101559.47
2022-08-05T07:27:57.064Z,101569.88
2022-08-05T07:30:25.347Z,101565.22
2022-08-05T07:32:58.235Z,101573.72
2022-08-05T07:36:04.655Z,101570.72
2022-08-05T07:38:33.334Z,101577.56
2022-08-05T07:41:16.497Z,101587.16
2022-08-05T07:43:51.369Z,101584.69
2022-08-05T07:46:25.496Z,101589.06
2022-08-05T07:49:01.878Z,101589.06
2022-08-05T07:51:36.797Z,101583.31
2022-08-05T07:54:09.621Z,101589.31
2022-08-05T07:57:00.645Z,101588.50
2022-08-05T07:59:39.058Z,101600.81
2022-08-05T08:02:15.929Z,101599.72
2022-08-05T08:04:45.751Z,101584.66
2022-08-05T08:07:13.876Z,101599.44
2022-08-05T08:09:42.580Z,101604.66
2022-08-05T08:12:27.542Z,101604.66
2022-08-05T08:15:02.708Z,101610.69
2022-08-05T08:17:31.601Z,101614.22
2022-08-05T08:20:21.107Z,101616.16
2022-08-05T08:22:52.309Z,101614.22
2022-08-05T08:25:26.748Z,101620.53
2022-08-05T08:28:18.082Z,101626.00
2022-08-05T08:30:49.909Z,101620.53
2022-08-05T08:33:19.311Z,101632.28
2022-08-05T08:35:53.845Z,101632.28
2022-08-05T08:38:37.730Z,101630.66
2022-08-05T08:41:09.168Z,101635.31
2022-08-05T08:45:17.760Z,101638.88
2022-08-05T08:46:29.106Z,101647.38
2022-08-05T08:49:06.173Z,101653.66
2022-08-05T08:52:04.247Z,101650.63
2022-08-05T08:54:37.349Z,101660.50
2022-08-05T08:57:11.354Z,101668.97
2022-08-05T08:59:41.916Z,101669.81
2022-08-05T09:02:18.986Z,101675.28
2022-08-05T09:05:16.093Z,101676.09
2022-08-05T09:07:39.469Z,101675.28
2022-08-05T09:10:27.971Z,101679.38
2022-08-05T09:13:04.548Z,101679.09
2022-08-05T09:15:36.763Z,101684.28
2022-08-05T09:18:08.817Z,101684.88
2022-08-05T09:20:38.050Z,101690.88
2022-08-05T09:23:18.544Z,101689.78
2022-08-05T09:26:03.111Z,101693.34
2022-08-05T09:28:33.816Z,101694.16
2022-08-05T09:31:23.511Z,101702.38
2022-08-05T09:33:58.509Z,101699.63
2022-08-05T09:36:54.204Z,101699.63
2022-08-05T09:39:41.215Z,101699.63
2022-08-05T09:42:23.271Z,101700.19
2022-08-05T09:44:56.089Z,101699.91
2022-08-05T09:47:34.948Z,101708.13
2022-08-05T09:50:08.257Z,101705.38
2022-08-05T09:52:45.162Z,101713.31
2022-08-05T09:55:58.716Z,101703.47
2022-08-05T09:58:01.435Z,101719.06
2022-08-05T10:00:30.483Z,101720.44
2022-08-05T10:02:59.146Z,101716.34
2022-08-05T10:05:32.968Z,101725.13
2022-08-05T10:08:34.602Z,101717.44
2022-08-05T10:10:54.327Z,101715.53
2022-08-05T10:13:39.398Z,101725.38
2022-08-05T10:16:32.056Z,101721.53
2022-08-05T10:19:01.145Z,101721.25
2022-08-05T10:21:40.421Z,101715.50
2022-08-05T10:24:13.126Z,101725.09
2022-08-05T10:26:52.202Z,101723.16
2022-08-05T10:29:23.414Z,101720.97
2022-08-05T10:32:54.071Z,101727.00
2022-08-05T10:34:41.155Z,101729.72
2022-08-05T10:37:13.058Z,101737.13
2022-08-05T10:39:59.081Z,101734.94
2022-08-05T10:42:38.378Z,101745.06
2022-08-05T10:45:24.070Z,101738.22
2022-08-05T10:48:35.056Z,101744.00
2022-08-05T10:51:22.037Z,101745.91
2022-08-05T10:53:58.406Z,101748.91
2022-08-05T10:56:30.329Z,101745.91
2022-08-05T10:59:12.765Z,101750.28
2022-08-05T11:02:14.093Z,101752.75
2022-08-05T11:04:56.976Z,101753.03
2022-08-05T11:07:32.785Z,101755.22
2022-08-05T11:10:09.671Z,101759.84
2022-08-05T11:12:54.328Z,101769.72
2022-08-05T11:16:01.031Z,101763.16
2022-08-05T11:18:26.622Z,101768.34
2022-08-05T11:20:54.828Z,101757.66
2022-08-05T11:24:02.678Z,101762.88
2022-08-05T11:26:33.511Z,101757.38
2022-08-05T11:29:12.052Z,101770.81
2022-08-05T11:31:58.023Z,101767.50
2022-08-05T11:34:39.548Z,101770.53
2022-08-05T11:38:27.776Z,101770.53
2022-08-05T11:40:02.953Z,101771.91
2022-08-05T11:42:37.782Z,101785.03
2022-08-05T11:45:23.514Z,101770.25
2022-08-05T11:47:55.866Z,101782.84
2022-08-05T11:50:25.286Z,101786.97
2022-08-05T11:52:57.752Z,101783.38
2022-08-05T11:55:31.563Z,101782.56
2022-08-05T11:58:09.744Z,101794.06
2022-08-05T12:00:41.237Z,101791.06
2022-08-05T12:03:29.010Z,101794.34
2022-08-05T12:06:01.888Z,101804.47
2022-08-05T12:08:31.609Z,101809.13
2022-08-05T12:11:05.671Z,101820.06
2022-08-05T12:13:48.727Z,101810.50
2022-08-05T12:16:19.937Z,101829.66
2022-08-05T12:18:53.519Z,101831.59
2022-08-05T12:21:24.333Z,101839.53
2022-08-05T12:24:10.907Z,101842.00
2022-08-05T12:26:44.302Z,101849.38
2022-08-05T12:29:16.198Z,101850.22
2022-08-05T12:31:53.739Z,101856.78
2022-08-05T12:34:25.896Z,101868.84
2022-08-05T12:36:54.644Z,101860.06
2022-08-05T12:39:27.903Z,101866.38
2022-08-05T12:42:02.585Z,101869.38
2022-08-05T12:44:34.024Z,101868.84
2022-08-05T12:47:02.868Z,101864.44
2022-08-05T12:50:03.629Z,101870.75
2022-08-05T12:52:38.539Z,101865.81
2022-08-05T12:55:22.458Z,101882.53
2022-08-05T12:58:48.554Z,101878.69
2022-08-05T13:02:04.060Z,101886.63
2022-08-05T13:03:41.566Z,101892.94
2022-08-05T13:06:13.988Z,101891.00
2022-08-05T13:08:49.145Z,101887.72
2022-08-05T13:11:25.342Z,101882.25
2022-08-05T13:14:16.110Z,101897.84
2022-08-05T13:16:56.429Z,101901.16
2022-08-05T13:19:26.363Z,101902.50
2022-08-05T13:21:56.645Z,101901.16
2022-08-05T13:24:36.240Z,101898.97
2022-08-05T13:27:23.111Z,101910.19
2022-08-05T13:30:34.712Z,101909.91
2022-08-05T13:32:50.627Z,101905.25
2022-08-05T13:35:26.288Z,101916.75
2022-08-05T13:38:07.008Z,101908.25
2022-08-05T13:40:51.881Z,101917.03
2022-08-05T13:43:21.752Z,101916.47
2022-08-05T13:45:50.686Z,101927.16
2022-08-05T13:48:58.177Z,101918.66
2022-08-05T13:51:08.463Z,101929.63
2022-08-05T13:53:47.804Z,101936.19
2022-08-05T13:56:18.959Z,101935.38
2022-08-05T13:58:52.771Z,101924.44
2022-08-05T14:01:27.410Z,101923.31
2022-08-05T14:04:28.044Z,101926.63
2022-08-05T14:07:12.026Z,101924.41
2022-08-05T14:09:46.336Z,101923.88
2022-08-05T14:12:17.554Z,101922.78
2022-08-05T14:14:46.822Z,101938.66
2022-08-05T14:17:16.909Z,101935.94
2022-08-05T14:19:54.615Z,101947.16
2022-08-05T14:22:24.149Z,101934.28
2022-08-05T14:24:58.313Z,101951.53
2022-08-05T14:27:28.290Z,101954.28
2022-08-05T14:29:56.300Z,101952.09
2022-08-05T14:32:27.253Z,101966.88
2022-08-05T14:34:57.679Z,101952.34
2022-08-05T14:37:44.740Z,101955.38
2022-08-05T14:40:17.016Z,101949.34
2022-08-05T14:42:45.226Z,101949.06
2022-08-05T14:45:13.183Z,101956.19
2022-08-05T14:48:05.005Z,101951.81
2022-08-05T14:50:32.087Z,101957.84
2022-08-05T14:53:00.628Z,101955.91
2022-08-05T14:55:39.008Z,101965.78
2022-08-05T14:58:10.811Z,101962.22
2022-08-05T15:00:59.389Z,101959.47
2022-08-05T15:03:33.930Z,101965.78
2022-08-05T15:06:15.146Z,101966.06
2022-08-05T15:08:59.375Z,101966.34
2022-08-05T15:11:50.978Z,101976.47
2022-08-05T15:14:34.980Z,101966.34
2022-08-05T15:17:09.903Z,101977.00
2022-08-05T15:19:56.993Z,101982.50
2022-08-05T15:22:27.175Z,101975.38
2022-08-05T15:24:55.511Z,101975.38
2022-08-05T15:27:25.707Z,101964.41
2022-08-05T15:29:56.607Z,101977.00
2022-08-05T15:32:27.390Z,101970.72
2022-08-05T15:34:56.898Z,101984.41
2022-08-05T15:38:32.613Z,101992.34
2022-08-05T15:40:59.776Z,101979.75
2022-08-05T15:43:10.919Z,101981.94
2022-08-05T15:45:47.741Z,101986.06
2022-08-05T15:48:28.257Z,101991.00
2022-08-05T15:50:56.484Z,101990.72
2022-08-05T15:53:26.331Z,101998.66
2022-08-05T15:56:02.511Z,101985.50
2022-08-05T15:58:35.443Z,101994.81
2022-08-05T16:01:16.165Z,101991.53
2022-08-05T16:03:48.482Z,101993.44
2022-08-05T16:06:20.231Z,102006.88
2022-08-05T16:08:50.365Z,102006.59
2022-08-05T16:11:21.092Z,102006.88
2022-08-05T16:14:07.083Z,102017.00
2022-08-05T16:16:36.786Z,102014.53
2022-08-05T16:19:04.905Z,102011.78
2022-08-05T16:22:00.686Z,102010.41
2022-08-05T16:24:41.307Z,102020.56
2022-08-05T16:27:09.555Z,102030.69
2022-08-05T16:29:37.980Z,102028.22
2022-08-05T16:32:06.362Z,102033.16
2022-08-05T16:34:34.257Z,102029.31
2022-08-05T16:37:01.956Z,102037.53
2022-08-05T16:40:06.062Z,102041.09
2022-08-05T16:42:36.387Z,102044.94
2022-08-05T16:46:02.663Z,102053.69
2022-08-05T16:47:54.383Z,102059.72
2022-08-05T16:50:25.254Z,102056.16
2022-08-05T16:52:52.923Z,102067.63
2022-08-05T16:55:25.698Z,102068.72
2022-08-05T16:58:01.470Z,102072.00
2022-08-05T17:00:34.980Z,102068.69
2022-08-05T17:03:09.286Z,102075.00
2022-08-05T17:05:53.378Z,102083.22
2022-08-05T17:08:51.868Z,102088.13
2022-08-05T17:11:12.695Z,102083.75
2022-08-05T17:13:44.652Z,102089.78
2022-08-05T17:16:29.880Z,102092.50
2022-08-05T17:19:01.183Z,102097.16
2022-08-05T17:21:35.746Z,102103.47
2022-08-05T17:24:19.666Z,102102.09
2022-08-05T17:26:53.780Z,102103.16
2022-08-05T17:29:33.813Z,102103.41
2022-08-05T17:32:08.616Z,102104.25
2022-08-05T17:34:40.387Z,102110.81
2022-08-05T17:37:27.238Z,102113.28
2022-08-05T17:39:59.886Z,102113.03
2022-08-05T17:42:32.284Z,102121.25
2022-08-05T17:45:17.700Z,102121.75
2022-08-05T17:47:53.013Z,102129.69
2022-08-05T17:50:28.235Z,102133.50
2022-08-05T17:52:58.987Z,102146.38
2022-08-05T17:55:37.110Z,102151.28
2022-08-05T17:58:12.281Z,102149.06
2022-08-05T18:00:45.464Z,102156.72
2022-08-05T18:06:10.879Z,102163.50
2022-08-05T18:08:44.539Z,102167.63
2022-08-05T18:11:24.183Z,102179.09
2022-08-05T18:14:03.582Z,102172.50
2022-08-05T18:16:32.273Z,102176.59
2022-08-05T18:19:00.032Z,102186.16
2022-08-05T18:21:28.225Z,102179.31
2022-08-05T18:24:15.478Z,102184.47
2022-08-05T18:26:43.935Z,102200.31
2022-08-05T18:29:13.061Z,102202.50
2022-08-05T18:31:44.645Z,102203.84
2022-08-05T18:34:12.931Z,102207.09
2022-08-05T18:36:43.598Z,102213.94
2022-08-05T18:39:41.810Z,102217.75
2022-08-05T18:42:03.575Z,102221.84
2022-08-05T18:44:49.239Z,102228.66
2022-08-05T18:47:26.781Z,102223.69
2022-08-05T18:50:13.098Z,102227.53
2022-08-05T18:52:51.138Z,102226.38
2022-08-05T18:55:21.509Z,102232.13
2022-08-05T18:57:53.302Z,102226.66
2022-08-05T19:00:28.704Z,102234.03
2022-08-05T19:02:57.824Z,102241.41
2022-08-05T19:06:13.536Z,102239.75
2022-08-05T19:08:19.761Z,102232.81
2022-08-05T19:10:49.600Z,102252.03
2022-08-05T19:13:17.518Z,102253.94
2022-08-05T19:15:58.828Z,102252.56
2022-08-05T19:18:31.072Z,102259.13
2022-08-05T19:20:59.551Z,102264.81
2022-08-05T19:24:07.090Z,102270.53
2022-08-05T19:26:16.594Z,102264.50
2022-08-05T19:28:44.480Z,102272.38
2022-08-05T19:31:17.685Z,102280.84
2022-08-05T19:33:48.734Z,102280.03
2022-08-05T19:36:24.965Z,102281.31
2022-08-05T19:38:54.104Z,102282.44
2022-08-05T19:42:03.392Z,102286.78
2022-08-05T19:44:13.275Z,102293.31
2022-08-05T19:46:43.723Z,102290.59
2022-08-05T19:49:16.458Z,102296.06
2022-08-05T19:52:04.363Z,102306.16
2022-08-05T19:54:34.659Z,102306.69
2022-08-05T19:57:06.850Z,102303.13
2022-08-05T20:00:00.784Z,102304.19
2022-08-05T20:02:30.358Z,102307.19
2022-08-05T20:04:59.911Z,102310.75
2022-08-05T20:07:48.583Z,102315.66
2022-08-05T20:10:16.469Z,102313.16
2022-08-05T20:12:48.326Z,102318.88
2022-08-05T20:15:47.843Z,102321.88
2022-08-05T20:18:10.267Z,102321.06
2022-08-05T20:20:56.076Z,102323.22
2022-08-05T20:23:39.653Z,102326.19
2022-08-05T20:26:16.057Z,102329.19
2022-08-05T20:28:44.524Z,102334.91
2022-08-05T20:31:12.454Z,102340.63
2022-08-05T20:33:42.460Z,102342.53
2022-08-05T20:36:11.210Z,102342.00
2022-08-05T20:38:40.867Z,102346.88
2022-08-05T20:41:24.140Z,102343.31
2022-08-05T20:43:59.586Z,102342.50
2022-08-05T20:46:30.447Z,102339.19
2022-08-05T20:49:00.830Z,102346.31
2022-08-05T20:51:30.316Z,102351.53
2022-08-05T20:54:01.261Z,102343.56
2022-08-05T20:56:32.971Z,102346.88
2022-08-05T20:59:14.078Z,102355.91
2022-08-05T21:01:47.352Z,102355.91
2022-08-05T21:04:17.652Z,102357.00
2022-08-05T21:06:46.098Z,102359.97
2022-08-05T21:09:15.769Z,102358.56
2022-08-05T21:12:08.990Z,102364.28
2022-08-05T21:14:34.777Z,102374.41
2022-08-05T21:17:05.098Z,102365.38
2022-08-05T21:19:46.669Z,102369.75
2022-08-05T21:22:18.531Z,102368.34
2022-08-05T21:24:52.025Z,102370.25
2022-08-05T21:27:20.572Z,102372.66
2022-08-05T21:29:54.148Z,102375.66
2022-08-05T21:32:23.473Z,102375.66
2022-08-05T21:35:06.823Z,102383.28
2022-08-05T21:37:41.672Z,102383.03
2022-08-05T21:40:16.652Z,102381.63
2022-08-05T21:42:45.772Z,102397.44
2022-08-05T21:45:24.003Z,102391.41
2022-08-05T21:47:56.826Z,102384.72
2022-08-05T21:50:27.458Z,102398.69
2022-08-05T21:52:59.075Z,102395.13
2022-08-05T21:56:01.720Z,102402.75
2022-08-05T21:58:24.802Z,102405.72
2022-08-05T22:00:59.458Z,102405.16
2022-08-05T22:03:48.957Z,102405.41
2022-08-05T22:06:16.333Z,102395.94
2022-08-05T22:08:52.206Z,102403.16
2022-08-05T22:11:34.992Z,102405.28
2022-08-05T22:14:06.228Z,102417.53
2022-08-05T22:16:55.938Z,102413.66
2022-08-05T22:20:01.157Z,102410.34
2022-08-05T22:22:15.614Z,102416.06
2022-08-05T22:25:01.912Z,102413.81
2022-08-05T22:28:08.827Z,102417.63
2022-08-05T22:30:35.876Z,102421.69
2022-08-05T22:33:04.287Z,102421.09
2022-08-05T22:35:48.730Z,102422.91
2022-08-05T22:38:18.927Z,102432.50
2022-08-05T22:40:49.878Z,102437.13
2022-08-05T22:43:37.482Z,102433.84
2022-08-05T22:46:12.285Z,102437.88
2022-08-05T22:48:41.801Z,102436.81
2022-08-05T22:51:22.376Z,102440.84
2022-08-05T22:53:55.149Z,102436.38
2022-08-05T22:56:30.721Z,102446.56
2022-08-05T22:59:02.784Z,102443.84
2022-08-05T23:02:05.063Z,102451.19
2022-08-05T23:04:19.408Z,102447.88
2022-08-05T23:06:47.742Z,102456.31
2022-08-05T23:09:27.449Z,102454.91
2022-08-05T23:12:05.446Z,102450.03
2022-08-05T23:14:33.869Z,102454.09
2022-08-05T23:17:34.262Z,102466.31
2022-08-05T23:20:16.771Z,102468.47
2022-08-05T23:22:47.451Z,102452.72
2022-08-05T23:25:52.961Z,102467.88
2022-08-05T23:28:07.008Z,102472.50
2022-08-05T23:30:40.292Z,102446.34
2022-08-05T23:33:22.047Z,102470.84
2022-08-05T23:35:55.090Z,102467.53
2022-08-05T23:38:25.850Z,102469.44
2022-08-05T23:40:55.171Z,102475.72
2022-08-05T23:43:37.319Z,102481.44
2022-08-05T23:46:20.689Z,102484.16
2022-08-05T23:48:59.608Z,102481.69
2022-08-05T23:51:54.271Z,102489.03
2022-08-05T23:54:25.595Z,102467.59
2022-08-05T23:57:03.381Z,102488.19
